Skip Navigation Links
NOAA logo - Click to go to the NOAA homepage
NOAA's National Weather Service
Alaska Aviation Weather Unit
  NWS logo - Click to go to the NWS homepage
Left Navbar Graphic     23 AKDT = 07 GMT

   
NOAA is celebrating 200 years of science, service, and stewardship. Visit the NOAA 200th celebration Web site to learn more.
USA.gov is the U.S. Government's official Web portal to all Federal, state and local government Web resources and services.
Facebook
NWS on Facebook

Important Change Regarding the AAWU Web Presence

 

Over the last several months, the AAWU has been working to navigate its webpages to a nationally supported server. Security, as well as other needs, have necessitated the change.  In the process, we have made an effort to enhance the functionality of our website, as well as some of our products. As of June 20, 2017, aawu.arh.noaa.gov will be discontinued. The new AAWU web address is weather.gov/aawu. It is now live and will run in-parallel with the old site until it is discontinued. Please send any feedback or questions regarding the new webpages to nws.ar.aawu.webauthors@noaa.gov.  Thank you for your patience during this time of transition.
AAWU Home :: Display TAF Add Bookmark
TAF PAMC 240532Z 2406/2506 19004KT P6SM FEW070 OVC110
     FM241200 15006KT P6SM -RA OVC050
     FM241500 17008G15KT 6SM -RA SCT015 OVC050
     FM241700 19011G19KT 4SM -RA BR BKN015 OVC035
     FM250000 22013G20KT P6SM -RA BKN050=

METAR PAMC 240153Z AUTO 15005KT 10SM OVC065 10/M01 A2993 RMK AO2 RAB0055E04 SLP138 P0000 T01001006 TSNO= METAR PAMC 240253Z AUTO 21011KT 10SM FEW049 OVC065 11/M01 A2991 RMK AO2 SLP133 60000 T01061011 58015 TSNO= METAR PAMC 240353Z AUTO 22013G16KT 10SM BKN050 BKN070 11/00 A2990 RMK AO2 SLP129 T01060000 TSNO= METAR PAMC 240453Z AUTO 19004KT 10SM FEW070 OVC110 10/01 A2988 RMK AO2 SLP121 T01000006 TSNO= METAR PAMC 240553Z AUTO 21006KT 10SM BKN075 OVC090 09/01 A2986 RMK AO2 SLP114 60000 T00940011 10111 20089 58018 TSNO= METAR PAMC 240653Z AUTO 18003KT 10SM OVC075 09/01 A2985 RMK SLP112 T00890011 TSNO VIA AUTODIAL=
 Alaska TAF Map

NOAA's National Weather Service
Alaska Aviation Weather Unit
6930 Sand Lake Road
Anchorage, AK 99502-1845
Disclaimer
Credits
Glossary
Privacy Policy
About Us
Career Opportunities
Contact AAWU Internet Services Site last modified: April, 17th 2012